createdAt,value
2018-02-07T00:02:06.385Z,68.30
2018-02-07T00:04:36.071Z,68.30
2018-02-07T00:07:03.823Z,67.70
2018-02-07T00:09:31.427Z,67.10
2018-02-07T00:11:59.098Z,66.60
2018-02-07T00:14:27.533Z,66.00
2018-02-07T00:16:55.190Z,66.00
2018-02-07T00:19:22.956Z,65.50
2018-02-07T00:21:50.605Z,65.40
2018-02-07T00:24:19.550Z,64.70
2018-02-07T00:26:48.680Z,65.10
2018-02-07T00:29:16.369Z,64.80
2018-02-07T00:31:44.092Z,64.90
2018-02-07T00:34:12.581Z,64.60
2018-02-07T00:36:40.300Z,64.50
2018-02-07T00:39:08.980Z,64.50
2018-02-07T00:41:36.745Z,63.90
2018-02-07T00:44:05.013Z,63.00
2018-02-07T00:46:32.785Z,62.80
2018-02-07T00:49:00.694Z,61.50
2018-02-07T00:51:28.312Z,61.40
2018-02-07T00:53:57.246Z,61.40
2018-02-07T00:56:24.855Z,61.30
2018-02-07T00:58:52.620Z,60.80
2018-02-07T01:01:20.385Z,61.10
2018-02-07T01:03:47.982Z,61.70
2018-02-07T01:06:16.340Z,61.70
2018-02-07T01:08:43.961Z,61.50
2018-02-07T01:11:11.899Z,61.10
2018-02-07T01:13:39.690Z,61.10
2018-02-07T01:16:07.399Z,60.40
2018-02-07T01:18:35.033Z,60.40
2018-02-07T01:21:03.712Z,60.70
2018-02-07T01:23:32.167Z,61.10
2018-02-07T01:26:00.344Z,61.10
2018-02-07T01:28:28.188Z,60.60
2018-02-07T01:30:55.833Z,60.60
2018-02-07T01:33:23.550Z,60.70
2018-02-07T01:35:51.425Z,61.30
2018-02-07T01:38:19.178Z,61.60
2018-02-07T01:40:46.798Z,61.90
2018-02-07T01:43:15.168Z,62.50
2018-02-07T01:45:43.556Z,63.00
2018-02-07T01:48:11.203Z,62.90
2018-02-07T01:50:39.019Z,63.20
2018-02-07T01:53:07.478Z,63.80
2018-02-07T01:55:35.093Z,63.80
2018-02-07T01:58:03.613Z,64.90
2018-02-07T02:00:31.344Z,64.90
2018-02-07T02:02:58.996Z,65.20
2018-02-07T02:05:26.785Z,65.60
2018-02-07T02:07:55.309Z,66.80
2018-02-07T02:10:23.136Z,66.30
2018-02-07T02:12:50.863Z,66.50
2018-02-07T02:15:18.628Z,66.30
2018-02-07T02:17:46.231Z,66.50
2018-02-07T02:20:14.711Z,66.70
2018-02-07T02:22:42.505Z,66.70
2018-02-07T02:25:10.239Z,67.10
2018-02-07T02:27:37.954Z,67.20
2018-02-07T02:30:05.709Z,67.20
2018-02-07T02:32:34.157Z,67.50
2018-02-07T02:35:02.678Z,67.40
2018-02-07T02:37:30.397Z,67.40
2018-02-07T02:39:58.048Z,67.30
2018-02-07T02:42:25.693Z,67.40
2018-02-07T02:44:53.637Z,67.50
2018-02-07T02:47:22.088Z,67.60
2018-02-07T02:49:49.798Z,67.60
2018-02-07T02:52:17.443Z,67.60
2018-02-07T02:54:45.062Z,67.60
2018-02-07T02:57:12.823Z,67.70
2018-02-07T02:59:40.520Z,68.30
2018-02-07T03:02:08.259Z,67.80
2018-02-07T03:04:35.953Z,68.00
2018-02-07T03:07:03.662Z,68.10
2018-02-07T03:09:31.303Z,68.10
2018-02-07T03:11:59.726Z,67.90
2018-02-07T03:14:27.309Z,67.90
2018-02-07T03:16:54.968Z,68.20
2018-02-07T03:19:22.545Z,68.10
2018-02-07T03:21:50.332Z,68.00
2018-02-07T03:24:17.905Z,68.00
2018-02-07T03:26:46.441Z,68.20
2018-02-07T03:29:14.093Z,68.30
2018-02-07T03:31:41.835Z,68.70
2018-02-07T03:34:09.448Z,68.90
2018-02-07T03:36:37.129Z,69.00
2018-02-07T03:39:04.774Z,69.30
2018-02-07T03:41:32.529Z,69.30
2018-02-07T03:44:00.125Z,69.10
2018-02-07T03:46:27.729Z,68.80
2018-02-07T03:48:56.162Z,69.30
2018-02-07T03:51:24.558Z,69.60
2018-02-07T03:53:52.165Z,69.60
2018-02-07T03:56:20.556Z,69.60
2018-02-07T03:58:48.214Z,69.60
2018-02-07T04:01:15.864Z,69.80
2018-02-07T04:03:43.477Z,69.70
2018-02-07T04:06:11.060Z,69.80
2018-02-07T04:08:38.630Z,69.70
2018-02-07T04:11:06.232Z,70.00
2018-02-07T04:13:33.827Z,70.10
2018-02-07T04:16:01.401Z,70.30
2018-02-07T04:18:29.521Z,70.50
2018-02-07T04:20:57.107Z,70.60
2018-02-07T04:23:24.721Z,70.70
2018-02-07T04:25:52.336Z,70.80
2018-02-07T04:28:19.913Z,70.90
2018-02-07T04:30:47.516Z,70.90
2018-02-07T04:33:15.092Z,71.00
2018-02-07T04:35:42.695Z,70.90
2018-02-07T04:38:10.286Z,70.60
2018-02-07T04:40:37.888Z,70.60
2018-02-07T04:43:05.473Z,70.60
2018-02-07T04:45:33.077Z,71.00
2018-02-07T04:48:00.653Z,70.90
2018-02-07T04:50:28.252Z,71.10
2018-02-07T04:52:55.858Z,71.20
2018-02-07T04:55:23.480Z,71.30
2018-02-07T04:57:51.117Z,71.30
2018-02-07T05:00:18.720Z,71.80
2018-02-07T05:02:46.318Z,71.90
2018-02-07T05:05:13.936Z,72.00
2018-02-07T05:07:42.394Z,71.90
2018-02-07T05:10:10.742Z,71.60
2018-02-07T05:12:39.122Z,71.70
2018-02-07T05:15:06.704Z,71.60
2018-02-07T05:17:34.349Z,71.60
2018-02-07T05:20:02.109Z,72.10
2018-02-07T05:22:29.681Z,71.60
2018-02-07T05:24:57.261Z,71.70
2018-02-07T05:27:25.634Z,71.80
2018-02-07T05:29:54.078Z,71.90
2018-02-07T05:32:21.726Z,71.80
2018-02-07T05:34:49.317Z,72.10
2018-02-07T05:37:16.942Z,72.30
2018-02-07T05:39:45.282Z,72.50
2018-02-07T05:42:12.901Z,72.50
2018-02-07T05:44:40.502Z,72.70
2018-02-07T05:47:08.104Z,73.00
2018-02-07T05:49:36.522Z,73.20
2018-02-07T05:52:05.391Z,73.20
2018-02-07T05:54:35.214Z,73.10
2018-02-07T05:57:02.912Z,73.10
2018-02-07T05:59:31.310Z,73.30
2018-02-07T06:01:59.016Z,73.50
2018-02-07T06:04:26.606Z,73.60
2018-02-07T06:06:54.221Z,73.80
2018-02-07T06:09:21.822Z,73.90
2018-02-07T06:11:49.399Z,74.10
2018-02-07T06:14:17.152Z,74.20
2018-02-07T06:16:45.266Z,74.20
2018-02-07T06:19:12.910Z,74.20
2018-02-07T06:21:40.521Z,74.20
2018-02-07T06:24:08.258Z,74.30
2018-02-07T06:26:35.912Z,74.90
2018-02-07T06:29:03.513Z,74.30
2018-02-07T06:31:31.151Z,74.40
2018-02-07T06:33:58.922Z,74.40
2018-02-07T06:36:26.636Z,74.50
2018-02-07T06:38:54.378Z,74.70
2018-02-07T06:41:22.162Z,74.70
2018-02-07T06:43:50.537Z,75.10
2018-02-07T06:46:18.153Z,75.00
2018-02-07T06:48:45.753Z,75.30
2018-02-07T06:51:14.148Z,76.10
2018-02-07T06:53:42.039Z,75.60
2018-02-07T06:56:09.686Z,75.50
2018-02-07T06:58:38.269Z,75.50
2018-02-07T07:01:06.649Z,75.80
2018-02-07T07:03:34.293Z,75.60
2018-02-07T07:06:01.876Z,75.50
2018-02-07T07:08:30.271Z,75.30
2018-02-07T07:10:58.459Z,75.30
2018-02-07T07:13:26.236Z,75.20
2018-02-07T07:15:53.844Z,75.20
2018-02-07T07:18:21.535Z,75.50
2018-02-07T07:20:49.282Z,75.70
2018-02-07T07:23:17.034Z,75.90
2018-02-07T07:25:44.788Z,76.20
2018-02-07T07:28:12.543Z,76.60
2018-02-07T07:30:40.177Z,76.60
2018-02-07T07:33:07.924Z,76.70
2018-02-07T07:35:36.348Z,76.70
2018-02-07T07:38:04.110Z,76.70
2018-02-07T07:40:31.865Z,76.90
2018-02-07T07:42:59.505Z,77.10
2018-02-07T07:45:29.440Z,77.00
2018-02-07T07:47:57.845Z,76.90
2018-02-07T07:50:26.303Z,76.80
2018-02-07T07:52:54.196Z,76.80
2018-02-07T07:55:21.821Z,76.60
2018-02-07T07:57:50.290Z,76.40
2018-02-07T08:00:17.981Z,76.40
2018-02-07T08:02:46.376Z,76.40
2018-02-07T08:05:13.999Z,76.40
2018-02-07T08:07:41.584Z,76.20
2018-02-07T08:10:09.957Z,75.70
2018-02-07T08:12:37.567Z,75.70
2018-02-07T08:15:05.155Z,75.70
2018-02-07T08:17:32.765Z,75.80
2018-02-07T08:20:00.340Z,75.80
2018-02-07T08:22:27.969Z,75.80
2018-02-07T08:24:56.327Z,76.40
2018-02-07T08:27:23.921Z,75.70
2018-02-07T08:29:52.314Z,75.60
2018-02-07T08:32:19.893Z,75.50
2018-02-07T08:34:47.555Z,75.20
2018-02-07T08:37:15.162Z,75.10
2018-02-07T08:39:42.789Z,74.80
2018-02-07T08:42:10.372Z,75.20
2018-02-07T08:44:37.959Z,74.60
2018-02-07T08:47:06.381Z,74.90
2018-02-07T08:49:33.953Z,74.90
2018-02-07T08:52:01.555Z,75.30
2018-02-07T08:54:29.169Z,75.50
2018-02-07T08:56:56.778Z,75.60
2018-02-07T08:59:24.413Z,75.80
2018-02-07T09:01:52.061Z,76.00
2018-02-07T09:04:20.585Z,76.20
2018-02-07T09:06:48.172Z,76.10
2018-02-07T09:09:15.793Z,75.90
2018-02-07T09:11:43.371Z,75.70
2018-02-07T09:14:10.973Z,75.50
2018-02-07T09:16:38.598Z,75.20
2018-02-07T09:19:06.177Z,74.80
2018-02-07T09:21:33.781Z,74.60
2018-02-07T09:24:02.157Z,74.10
2018-02-07T09:26:29.779Z,74.10
2018-02-07T09:28:57.419Z,73.90
2018-02-07T09:31:24.993Z,73.50
2018-02-07T09:33:52.618Z,73.40
2018-02-07T09:36:20.200Z,72.30
2018-02-07T09:38:47.785Z,72.10
2018-02-07T09:41:15.377Z,71.40
2018-02-07T09:43:42.965Z,71.00
2018-02-07T09:46:11.305Z,70.30
2018-02-07T09:48:39.272Z,70.30
2018-02-07T09:51:06.872Z,69.80
2018-02-07T09:53:34.484Z,68.70
2018-02-07T09:56:02.246Z,68.40
2018-02-07T09:58:29.857Z,67.70
2018-02-07T10:00:57.585Z,67.30
2018-02-07T10:03:25.233Z,67.20
2018-02-07T10:05:52.869Z,66.60
2018-02-07T10:08:20.449Z,65.60
2018-02-07T10:10:48.052Z,66.10
2018-02-07T10:13:15.713Z,66.20
2018-02-07T10:15:43.326Z,65.90
2018-02-07T10:18:10.978Z,65.80
2018-02-07T10:20:38.603Z,65.30
2018-02-07T10:23:06.255Z,65.30
2018-02-07T10:25:33.847Z,65.00
2018-02-07T10:28:01.777Z,64.60
2018-02-07T10:30:29.681Z,64.60
2018-02-07T10:32:57.358Z,63.70
2018-02-07T10:35:25.630Z,63.30
2018-02-07T10:37:53.990Z,62.70
2018-02-07T10:40:21.622Z,62.70
2018-02-07T10:42:49.198Z,62.10
2018-02-07T10:45:16.801Z,60.90
2018-02-07T10:47:44.437Z,61.50
2018-02-07T10:50:12.046Z,61.50
2018-02-07T10:52:39.781Z,61.00
2018-02-07T10:55:07.371Z,61.00
2018-02-07T10:57:35.009Z,61.10
2018-02-07T11:00:02.615Z,61.10
2018-02-07T11:02:30.964Z,60.30
2018-02-07T11:04:58.608Z,60.30
2018-02-07T11:07:26.185Z,59.90
2018-02-07T11:09:53.804Z,60.20
2018-02-07T11:12:21.410Z,59.70
2018-02-07T11:14:49.077Z,59.60
2018-02-07T11:17:16.696Z,59.20
2018-02-07T11:19:44.321Z,59.60
2018-02-07T11:22:11.894Z,58.80
2018-02-07T11:24:39.502Z,58.10
2018-02-07T11:27:07.272Z,58.20
2018-02-07T11:29:34.880Z,58.40
2018-02-07T11:32:02.457Z,57.50
2018-02-07T11:34:30.803Z,57.30
2018-02-07T11:36:58.413Z,57.20
2018-02-07T11:39:27.055Z,56.80
2018-02-07T11:41:54.658Z,56.80
2018-02-07T11:44:22.277Z,57.40
2018-02-07T11:46:49.896Z,57.60
2018-02-07T11:49:17.513Z,56.70
2018-02-07T11:51:45.097Z,57.20
2018-02-07T11:54:12.813Z,56.30
2018-02-07T11:56:40.385Z,56.30
2018-02-07T11:59:07.960Z,55.80
2018-02-07T12:01:35.569Z,54.90
2018-02-07T12:04:03.168Z,54.90
2018-02-07T12:06:30.788Z,55.20
2018-02-07T12:08:59.138Z,54.80
2018-02-07T12:11:26.749Z,54.80
2018-02-07T12:13:54.334Z,54.50
2018-02-07T12:16:21.964Z,53.50
2018-02-07T12:18:49.532Z,52.50
2018-02-07T12:21:17.121Z,52.80
2018-02-07T12:23:44.738Z,52.70
2018-02-07T12:26:12.344Z,53.10
2018-02-07T12:28:39.987Z,52.50
2018-02-07T12:31:07.693Z,52.50
2018-02-07T12:33:35.317Z,50.80
2018-02-07T12:36:05.701Z,51.20
2018-02-07T12:38:33.301Z,51.50
2018-02-07T12:41:01.677Z,49.80
2018-02-07T12:43:29.252Z,49.80
2018-02-07T12:45:56.866Z,49.30
2018-02-07T12:48:24.507Z,50.10
2018-02-07T12:50:52.121Z,49.40
2018-02-07T12:53:20.496Z,48.60
2018-02-07T12:55:48.338Z,48.60
2018-02-07T12:58:16.221Z,48.70
2018-02-07T13:00:43.993Z,48.40
2018-02-07T13:03:11.633Z,47.10
2018-02-07T13:05:39.318Z,47.30
2018-02-07T13:08:06.905Z,47.50
2018-02-07T13:10:35.670Z,47.70
2018-02-07T13:13:03.246Z,47.70
2018-02-07T13:15:31.071Z,47.30
2018-02-07T13:17:58.663Z,45.90
2018-02-07T13:20:26.299Z,45.00
2018-02-07T13:22:53.905Z,43.40
2018-02-07T13:25:22.385Z,44.40
2018-02-07T13:27:50.029Z,44.50
2018-02-07T13:30:17.597Z,43.70
2018-02-07T13:32:45.182Z,42.70
2018-02-07T13:35:12.786Z,43.20
2018-02-07T13:37:40.394Z,43.90
2018-02-07T13:40:08.115Z,43.30
2018-02-07T13:42:35.689Z,42.00
2018-02-07T13:45:03.328Z,42.50
2018-02-07T13:47:31.281Z,43.20
2018-02-07T13:49:58.897Z,42.20
2018-02-07T13:52:26.474Z,41.40
2018-02-07T13:54:54.047Z,41.50
2018-02-07T13:57:22.005Z,41.60
2018-02-07T13:59:49.591Z,40.30
2018-02-07T14:02:18.392Z,40.30
2018-02-07T14:04:46.794Z,38.30
2018-02-07T14:07:14.392Z,38.20
2018-02-07T14:09:41.974Z,37.60
2018-02-07T14:12:09.592Z,36.80
2018-02-07T14:14:37.174Z,36.70
2018-02-07T14:17:04.821Z,36.40
2018-02-07T14:19:32.401Z,36.80
2018-02-07T14:22:00.014Z,36.90
2018-02-07T14:24:27.625Z,37.30
2018-02-07T14:26:55.201Z,37.40
2018-02-07T14:29:22.802Z,38.10
2018-02-07T14:31:50.387Z,39.10
2018-02-07T14:34:17.989Z,39.50
2018-02-07T14:36:45.685Z,39.50
2018-02-07T14:39:13.317Z,39.10
2018-02-07T14:41:40.888Z,38.80
2018-02-07T14:44:09.158Z,39.80
2018-02-07T14:46:37.210Z,38.90
2018-02-07T14:49:04.786Z,38.60
2018-02-07T14:51:32.364Z,38.80
2018-02-07T14:53:59.989Z,38.70
2018-02-07T14:56:27.621Z,38.60
2018-02-07T14:58:56.006Z,36.00
2018-02-07T15:01:23.603Z,35.70
2018-02-07T15:03:51.231Z,32.80
2018-02-07T15:06:19.857Z,31.50
2018-02-07T15:08:47.490Z,31.50
2018-02-07T15:11:15.850Z,29.80
2018-02-07T15:13:43.480Z,29.80
2018-02-07T15:16:11.105Z,32.40
2018-02-07T15:18:39.523Z,34.90
2018-02-07T15:21:07.119Z,34.90
2018-02-07T15:23:34.784Z,35.90
2018-02-07T15:26:02.387Z,36.30
2018-02-07T15:28:29.961Z,36.50
2018-02-07T15:30:57.573Z,36.80
2018-02-07T15:33:25.396Z,37.00
2018-02-07T15:35:53.006Z,37.40
2018-02-07T15:38:20.661Z,37.50
2018-02-07T15:40:49.113Z,38.80
2018-02-07T15:43:16.734Z,38.80
2018-02-07T15:45:44.493Z,39.30
2018-02-07T15:48:12.152Z,40.00
2018-02-07T15:50:39.781Z,40.50
2018-02-07T15:53:08.942Z,41.40
2018-02-07T15:55:37.297Z,41.40
2018-02-07T15:58:04.883Z,41.30
2018-02-07T16:00:32.514Z,41.50
2018-02-07T16:03:00.133Z,42.10
2018-02-07T16:05:27.744Z,42.50
2018-02-07T16:07:55.363Z,42.90
2018-02-07T16:10:23.480Z,43.90
2018-02-07T16:12:51.109Z,43.60
2018-02-07T16:15:18.784Z,43.70
2018-02-07T16:17:46.398Z,43.80
2018-02-07T16:20:13.977Z,44.00
2018-02-07T16:22:42.349Z,44.10
2018-02-07T16:25:09.940Z,44.10
2018-02-07T16:27:38.254Z,44.20
2018-02-07T16:30:05.867Z,44.60
2018-02-07T16:32:34.485Z,45.40
2018-02-07T16:35:02.115Z,45.40
2018-02-07T16:37:29.726Z,45.10
2018-02-07T16:39:57.345Z,45.20
2018-02-07T16:42:25.717Z,45.60
2018-02-07T16:44:53.382Z,45.60
2018-02-07T16:47:21.232Z,46.00
2018-02-07T16:49:48.897Z,46.10
2018-02-07T16:52:17.294Z,46.20
2018-02-07T16:54:46.306Z,46.20
2018-02-07T16:57:13.881Z,46.20
2018-02-07T16:59:41.519Z,46.00
2018-02-07T17:02:09.888Z,46.30
2018-02-07T17:04:37.561Z,46.30
2018-02-07T17:07:05.151Z,46.20
2018-02-07T17:09:32.772Z,46.10
2018-02-07T17:12:00.353Z,46.80
2018-02-07T17:14:27.976Z,47.40
2018-02-07T17:16:55.567Z,47.90
2018-02-07T17:19:23.410Z,48.40
2018-02-07T17:21:51.080Z,48.70
2018-02-07T17:24:18.660Z,48.50
2018-02-07T17:26:47.137Z,49.20
2018-02-07T17:29:16.301Z,49.60
2018-02-07T17:31:43.963Z,49.60
2018-02-07T17:34:11.594Z,49.90
2018-02-07T17:36:39.985Z,51.20
2018-02-07T17:39:07.612Z,51.20
2018-02-07T17:41:35.256Z,51.30
2018-02-07T17:44:03.238Z,51.30
2018-02-07T17:46:30.924Z,51.40
2018-02-07T17:48:58.543Z,51.20
2018-02-07T17:51:26.214Z,51.20
2018-02-07T17:53:53.912Z,51.20
2018-02-07T17:56:21.907Z,51.50
2018-02-07T17:58:49.485Z,51.70
2018-02-07T18:01:17.125Z,51.70
2018-02-07T18:03:45.508Z,51.80
2018-02-07T18:06:13.782Z,51.80
2018-02-07T18:08:42.189Z,52.00
2018-02-07T18:11:10.167Z,52.00
2018-02-07T18:13:38.750Z,51.50
2018-02-07T18:16:06.362Z,51.70
2018-02-07T18:18:33.997Z,52.50
2018-02-07T18:21:01.714Z,53.20
2018-02-07T18:23:29.361Z,54.00
2018-02-07T18:25:56.955Z,55.00
2018-02-07T18:28:25.331Z,55.40
2018-02-07T18:30:53.648Z,55.40
2018-02-07T18:33:21.276Z,55.30
2018-02-07T18:35:48.917Z,55.80
2018-02-07T18:38:16.645Z,56.40
2018-02-07T18:40:44.278Z,56.30
2018-02-07T18:43:11.970Z,56.20
2018-02-07T18:45:39.570Z,56.30
2018-02-07T18:48:07.218Z,56.40
2018-02-07T18:50:35.076Z,56.60
2018-02-07T18:53:02.672Z,56.90
2018-02-07T18:55:30.506Z,57.20
2018-02-07T18:57:58.166Z,57.20
2018-02-07T19:00:25.906Z,57.10
2018-02-07T19:02:53.530Z,56.90
2018-02-07T19:05:21.156Z,56.70
2018-02-07T19:07:48.855Z,55.90
2018-02-07T19:10:16.618Z,54.60
2018-02-07T19:12:44.235Z,54.20
2018-02-07T19:15:13.045Z,54.00
2018-02-07T19:17:40.629Z,54.00
2018-02-07T19:20:08.246Z,54.10
2018-02-07T19:22:35.897Z,54.30
2018-02-07T19:25:04.410Z,53.50
2018-02-07T19:27:32.027Z,53.50
2018-02-07T19:29:59.757Z,53.60
2018-02-07T19:32:27.674Z,53.70
2018-02-07T19:34:55.450Z,54.20
2018-02-07T19:37:23.881Z,54.60
2018-02-07T19:39:51.638Z,54.60
2018-02-07T19:42:19.322Z,54.50
2018-02-07T19:44:46.962Z,54.50
2018-02-07T19:47:14.597Z,54.70
2018-02-07T19:49:42.956Z,54.90
2018-02-07T19:52:10.579Z,54.80
2018-02-07T19:54:38.253Z,55.10
2018-02-07T19:57:05.838Z,54.90
2018-02-07T19:59:34.604Z,55.00
2018-02-07T20:02:02.247Z,54.90
2018-02-07T20:07:04.065Z,54.20
2018-02-07T20:09:31.798Z,54.60
2018-02-07T20:11:59.628Z,55.10
2018-02-07T20:14:28.001Z,55.50
2018-02-07T20:16:55.680Z,55.40
2018-02-07T20:19:23.332Z,55.40
2018-02-07T20:21:50.948Z,55.50
2018-02-07T20:24:18.550Z,55.40
2018-02-07T20:26:47.067Z,55.30
2018-02-07T20:29:15.487Z,55.10
2018-02-07T20:31:43.131Z,55.10
2018-02-07T20:34:10.722Z,55.00
2018-02-07T20:36:38.393Z,54.90
2018-02-07T20:39:06.295Z,54.90
2018-02-07T20:41:34.225Z,55.20
2018-02-07T20:44:01.846Z,55.30
2018-02-07T20:46:29.585Z,55.10
2018-02-07T20:48:57.424Z,54.80
2018-02-07T20:51:25.210Z,54.90
2018-02-07T20:53:52.900Z,55.30
2018-02-07T20:56:21.475Z,55.80
2018-02-07T20:58:49.151Z,55.80
2018-02-07T21:01:17.232Z,56.40
2018-02-07T21:03:46.434Z,57.20
2018-02-07T21:06:15.045Z,58.40
2018-02-07T21:08:42.789Z,58.40
2018-02-07T21:11:10.516Z,59.00
2018-02-07T21:13:38.185Z,59.60
2018-02-07T21:16:06.064Z,59.90
2018-02-07T21:18:34.478Z,61.80
2018-02-07T21:21:02.896Z,62.50
2018-02-07T21:23:31.305Z,62.50
2018-02-07T21:25:58.971Z,62.40
2018-02-07T21:28:26.658Z,62.90
2018-02-07T21:30:55.220Z,62.80
2018-02-07T21:33:22.861Z,63.10
2018-02-07T21:35:51.365Z,63.20
2018-02-07T21:38:19.733Z,62.90
2018-02-07T21:40:47.412Z,62.90
2018-02-07T21:43:15.001Z,62.90
2018-02-07T21:45:42.613Z,62.80
2018-02-07T21:48:11.131Z,63.40
2018-02-07T21:50:38.756Z,63.50
2018-02-07T21:53:06.431Z,63.90
2018-02-07T21:55:34.102Z,63.90
2018-02-07T21:58:01.833Z,64.40
2018-02-07T22:00:29.496Z,64.60
2018-02-07T22:02:57.111Z,64.80
2018-02-07T22:05:24.767Z,64.90
2018-02-07T22:07:52.388Z,64.90
2018-02-07T22:10:20.204Z,64.70
2018-02-07T22:12:47.997Z,64.90
2018-02-07T22:15:15.661Z,65.50
2018-02-07T22:17:43.942Z,65.80
2018-02-07T22:20:12.458Z,66.80
2018-02-07T22:22:40.104Z,66.70
2018-02-07T22:25:07.713Z,67.00
2018-02-07T22:27:35.389Z,67.40
2018-02-07T22:30:03.097Z,67.70
2018-02-07T22:32:31.545Z,68.00
2018-02-07T22:34:59.187Z,68.20
2018-02-07T22:37:26.764Z,68.90
2018-02-07T22:39:56.008Z,69.10
2018-02-07T22:42:25.400Z,69.70
2018-02-07T22:44:53.128Z,69.60
2018-02-07T22:47:20.757Z,69.70
2018-02-07T22:49:48.535Z,69.80
2018-02-07T22:52:16.317Z,69.80
2018-02-07T22:54:44.249Z,69.50
2018-02-07T22:57:12.639Z,70.00
2018-02-07T22:59:40.641Z,69.90
2018-02-07T23:02:08.507Z,70.20
2018-02-07T23:04:36.372Z,70.40
2018-02-07T23:07:05.499Z,70.30
2018-02-07T23:09:34.312Z,70.20
2018-02-07T23:12:04.415Z,70.10
2018-02-07T23:14:32.056Z,70.00
2018-02-07T23:16:59.935Z,69.70
2018-02-07T23:19:27.750Z,69.10
2018-02-07T23:21:55.401Z,68.80
2018-02-07T23:24:23.828Z,68.40
2018-02-07T23:26:52.545Z,68.40
2018-02-07T23:29:20.218Z,68.50
2018-02-07T23:31:49.156Z,68.80
2018-02-07T23:34:17.199Z,69.00
2018-02-07T23:36:45.625Z,68.80
2018-02-07T23:39:13.316Z,68.70
2018-02-07T23:41:40.925Z,69.30
2018-02-07T23:44:09.357Z,69.90
2018-02-07T23:46:36.943Z,70.00
2018-02-07T23:49:04.569Z,70.20
2018-02-07T23:51:32.241Z,70.30
2018-02-07T23:54:00.492Z,70.40
2018-02-07T23:56:28.891Z,70.50
2018-02-07T23:58:56.518Z,70.50
